Coquille, OR (97423)

2:46 AM PDT on August 30, 2016 (GMT -0700)
| | Change Station

Elev -9999 ft 0.00 °N, 0.00 °E | Updated

Cloudy
Cloudy
55 °F
Feels Like 55 °F
N
1
Wind Variable Wind from South
Gusts mph

Today
High -- | Low -- °F
--% Chance of Precip.
Yesterday
High -- | Low -- °F
Precip. -- in
Pressure 30.10 in
Visibility 10.0 miles
Clouds Overcast 1500 ft
Dew Point 52 °F
Humidity 91%
Rainfall --
Snow Depth Not available.
6:39 AM 7:54 PM
Waning Crescent, 4% visible
METAR KOTH 300935Z 00000KT 10SM OVC015 14/13 A3010 RMK AO1
Pressure 30.10 in
Visibility 10.0 miles
Clouds Overcast 1500 ft
Dew Point 52 °F
Humidity 91%
Rainfall --
Snow Depth Not available.
6:39 AM 7:54 PM
Waning Crescent, 4% visible
METAR KOTH 300935Z 00000KT 10SM OVC015 14/13 A3010 RMK AO1

10-Day Weather Forecast

Almanac

Astronomy

Aug. 30, 2016 Rise Set
Actual Time
Civil Twilight
Nautical Twilight
Astronomical Twilight
Moon
Length of Visible Light
Length of Day
Tomorrow will be .
, % of the Moon is Illuminated

Today's Extremes

State Highs State Lows

Community

WunderPhotos

Upload Photos

1,935,795 photos uploaded!

WunderBlog® & News

Nearby

Air Quality

  Air Quality AQ Index Pollutant
Not available.

Snow Depth

Station Depth Elevation

Earthquake Activity

City Distance Mag. Time & Date
Minimum magnitude displayed is 2.5.

Coastal Water Temperatures

Place Temperature

Stations

Nearby Weather Stations

Station Location Temp. Windchill Dew Point Humidity Wind Precip. Elev Updated Type
                   

Watches & Warnings

There are currently no watches in effect.